Time;durP1;ratioP1;P1;durP2;ratioP2;P2;SDS_P1;SDS_P2;PMS_P1;PMS_P2;Temp;Humidity;BMP_temperature;BMP_pressure;BME280_temperature;BME280_humidity;BME280_pressure;Samples;Min_cycle;Max_cycle;Signal;HPM_P1;HPM_P2
2023/05/22 00:00:17;;;;;;;10.38;4.68;;;;;;;16.45;100.00;100307.34;5526998;32;34531;-68
2023/05/22 00:03:23;;;;;;;8.85;4.95;;;;;;;16.44;100.00;100293.12;5526923;32;34126;-68
2023/05/22 00:06:26;;;;;;;11.02;5.35;;;;;;;16.36;100.00;100282.59;5537766;32;34077;-68
2023/05/22 00:09:30;;;;;;;9.27;4.90;;;;;;;16.58;100.00;100285.91;5548848;32;33897;-68
2023/05/22 00:12:34;;;;;;;9.60;4.95;;;;;;;16.61;100.00;100288.16;5549015;32;33950;-68
2023/05/22 00:15:39;;;;;;;12.13;5.05;;;;;;;16.57;100.00;100288.75;5548947;32;33739;-68
2023/05/22 00:18:43;;;;;;;9.70;5.00;;;;;;;16.47;100.00;100281.16;5548897;32;33963;-68
2023/05/22 00:21:50;;;;;;;7.10;5.05;;;;;;;16.43;100.00;100287.97;5548940;32;33839;-68
2023/05/22 00:24:53;;;;;;;9.82;5.03;;;;;;;16.48;100.00;100288.16;5549262;32;33686;-68
2023/05/22 00:27:57;;;;;;;7.45;5.20;;;;;;;16.66;100.00;100296.41;5548418;32;34605;-67
2023/05/22 00:31:02;;;;;;;7.62;4.62;;;;;;;16.52;100.00;100295.56;5549122;32;33867;-67
2023/05/22 00:34:06;;;;;;;10.73;5.50;;;;;;;16.41;100.00;100290.03;5548459;32;34701;-67
2023/05/22 00:37:10;;;;;;;7.53;4.82;;;;;;;16.40;100.00;100291.06;5548999;32;34829;-68
2023/05/22 00:40:15;;;;;;;7.97;4.75;;;;;;;16.44;100.00;100301.16;5548269;32;34560;-67
2023/05/22 00:43:20;;;;;;;6.37;4.60;;;;;;;16.42;100.00;100305.06;5548362;32;34235;-67
2023/05/22 00:46:24;;;;;;;10.27;4.90;;;;;;;16.33;100.00;100300.94;5548548;32;33701;-68
2023/05/22 00:49:28;;;;;;;9.75;5.20;;;;;;;16.39;100.00;100289.41;5548483;32;34295;-67
2023/05/22 00:52:34;;;;;;;6.60;4.65;;;;;;;16.53;100.00;100294.53;5548732;32;33748;-67
2023/05/22 00:55:38;;;;;;;9.70;4.80;;;;;;;16.62;100.00;100300.53;5548387;32;33684;-68
2023/05/22 00:58:43;;;;;;;8.60;4.37;;;;;;;16.49;100.00;100287.13;5548489;32;33765;-67
2023/05/22 01:01:47;;;;;;;7.93;4.50;;;;;;;16.34;100.00;100287.34;5548484;32;34371;-67
2023/05/22 01:04:56;;;;;;;7.85;4.70;;;;;;;16.16;100.00;100284.50;5547369;32;34005;-67
2023/05/22 01:08:02;;;;;;;7.25;4.15;;;;;;;16.06;100.00;100289.44;5548272;32;34493;-67
2023/05/22 01:11:24;;;;;;;7.35;4.62;;;;;;;15.95;100.00;100296.22;5548263;32;33864;-67
2023/05/22 01:14:34;;;;;;;6.50;4.30;;;;;;;15.87;100.00;100296.41;5548680;32;33776;-67
2023/05/22 01:18:18;;;;;;;7.32;4.87;;;;;;;15.99;100.00;100291.25;5546632;32;33943;-68
2023/05/22 01:21:32;;;;;;;7.53;4.75;;;;;;;16.25;100.00;100283.25;5548362;32;33895;-68
2023/05/22 01:24:52;;;;;;;11.02;4.90;;;;;;;16.33;100.00;100282.19;5548383;32;33687;-67
2023/05/22 01:27:59;;;;;;;10.55;4.90;;;;;;;16.26;100.00;100284.91;5548348;32;33485;-67
2023/05/22 01:31:10;;;;;;;9.15;4.80;;;;;;;16.07;100.00;100291.87;5548265;32;34320;-67
2023/05/22 01:34:18;;;;;;;8.60;4.82;;;;;;;15.98;100.00;100287.75;5548366;32;33585;-67
2023/05/22 01:37:24;;;;;;;8.95;4.57;;;;;;;15.88;100.00;100283.84;5547240;32;34720;-67
2023/05/22 01:40:30;;;;;;;8.48;4.50;;;;;;;15.82;100.00;100282.00;5547596;32;34593;-68
2023/05/22 01:43:36;;;;;;;10.68;5.03;;;;;;;15.77;100.00;100285.28;5548181;32;34004;-67
2023/05/22 01:46:41;;;;;;;11.57;4.97;;;;;;;15.72;100.00;100287.75;5548154;32;33941;-67
2023/05/22 01:49:46;;;;;;;7.37;4.95;;;;;;;15.58;100.00;100283.41;5548130;32;33644;-68
2023/05/22 01:53:17;;;;;;;8.25;4.55;;;;;;;15.43;100.00;100277.37;5548112;32;34404;-67
2023/05/22 01:56:38;;;;;;;12.30;4.80;;;;;;;15.30;100.00;100264.75;5547817;32;33676;-67
2023/05/22 01:59:57;;;;;;;7.12;4.90;;;;;;;15.57;100.00;100261.19;5547781;32;33965;-69
2023/05/22 02:03:17;;;;;;;14.45;4.72;;;;;;;15.75;100.00;100265.94;5548095;32;33587;-68
2023/05/22 02:06:28;;;;;;;9.93;5.03;;;;;;;15.57;100.00;100265.72;5547949;32;34084;-69
2023/05/22 02:09:35;;;;;;;8.23;4.70;;;;;;;15.51;100.00;100271.84;5548182;32;33720;-68
2023/05/22 02:12:41;;;;;;;8.70;4.82;;;;;;;15.33;100.00;100266.22;5548047;32;33884;-68
2023/05/22 02:15:46;;;;;;;7.70;4.90;;;;;;;15.18;100.00;100264.53;5548019;32;33839;-69
2023/05/22 02:18:57;;;;;;;8.05;4.68;;;;;;;15.27;100.00;100259.00;5547979;32;33820;-69
2023/05/22 02:22:02;;;;;;;7.82;4.68;;;;;;;15.43;100.00;100261.31;5547037;32;34247;-69
2023/05/22 02:25:15;;;;;;;8.73;4.70;;;;;;;15.39;100.00;100273.47;5547110;32;33641;-68
2023/05/22 02:28:20;;;;;;;7.45;4.65;;;;;;;15.37;100.00;100272.81;5547654;32;34504;-67
2023/05/22 02:31:25;;;;;;;8.23;4.65;;;;;;;15.23;100.00;100271.97;5546837;32;34773;-67
2023/05/22 02:34:32;;;;;;;7.47;4.75;;;;;;;15.07;100.00;100266.94;5547792;32;33686;-68
2023/05/22 02:37:37;;;;;;;10.30;4.35;;;;;;;14.97;100.00;100263.81;5547677;32;33930;-68
2023/05/22 02:40:42;;;;;;;9.50;4.70;;;;;;;15.22;100.00;100264.97;5547116;32;33845;-68
2023/05/22 02:43:48;;;;;;;10.18;4.97;;;;;;;15.19;100.00;100270.72;5546986;32;33831;-68
2023/05/22 02:46:53;;;;;;;9.60;5.20;;;;;;;15.04;100.00;100267.37;5546946;32;34615;-68
2023/05/22 02:49:58;;;;;;;10.82;5.10;;;;;;;15.04;100.00;100259.34;5546815;32;34386;-68
2023/05/22 02:53:02;;;;;;;9.05;5.50;;;;;;;15.00;100.00;100261.59;5547351;32;34772;-68
2023/05/22 02:56:09;;;;;;;10.57;5.10;;;;;;;15.07;100.00;100254.41;5546995;32;34278;-68
2023/05/22 02:59:13;;;;;;;8.43;5.78;;;;;;;15.14;100.00;100255.28;5547447;32;34743;-68
2023/05/22 03:02:18;;;;;;;9.82;4.85;;;;;;;15.06;100.00;100266.12;5547662;32;34265;-68
2023/05/22 03:05:23;;;;;;;9.15;5.47;;;;;;;14.95;100.00;100263.22;5547029;32;34492;-68
2023/05/22 03:08:30;;;;;;;11.18;5.32;;;;;;;14.87;100.00;100266.88;5547096;32;33648;-68
2023/05/22 03:11:34;;;;;;;10.48;4.97;;;;;;;14.87;100.00;100266.03;5546446;32;34090;-68
2023/05/22 03:14:39;;;;;;;9.02;4.85;;;;;;;14.82;100.00;100265.81;5546971;32;33723;-68
2023/05/22 03:17:44;;;;;;;8.98;5.40;;;;;;;14.71;100.00;100272.56;5546517;32;34018;-68
2023/05/22 03:20:50;;;;;;;8.43;5.43;;;;;;;14.88;100.00;100257.84;5541478;32;34729;-67
2023/05/22 03:23:55;;;;;;;12.05;6.05;;;;;;;14.91;100.00;100260.09;5546779;32;34034;-68
2023/05/22 03:27:00;;;;;;;11.15;5.62;;;;;;;14.87;100.00;100258.03;5546861;32;33905;-68
2023/05/22 03:30:07;;;;;;;11.27;5.50;;;;;;;14.86;100.00;100253.72;5545977;32;33693;-68
2023/05/22 03:33:12;;;;;;;8.52;5.20;;;;;;;14.81;100.00;100251.66;5546920;32;33709;-68
2023/05/22 03:36:18;;;;;;;7.95;5.50;;;;;;;14.77;100.00;100259.22;5546801;32;34369;-68
2023/05/22 03:39:22;;;;;;;8.13;5.40;;;;;;;14.82;100.00;100258.63;5546622;32;34498;-68
2023/05/22 03:42:26;;;;;;;10.85;5.18;;;;;;;14.82;100.00;100266.63;5549428;32;34650;-68
2023/05/22 03:45:31;;;;;;;9.90;5.80;;;;;;;14.83;100.00;100254.09;5548301;32;34422;-68
2023/05/22 03:48:38;;;;;;;9.85;5.70;;;;;;;14.84;100.00;100263.78;5549146;32;33657;-68
2023/05/22 03:51:44;;;;;;;8.95;5.15;;;;;;;14.86;100.00;100265.25;5546310;32;33787;-68
2023/05/22 03:54:48;;;;;;;12.07;5.62;;;;;;;14.88;100.00;100265.03;5546851;32;34826;-68
2023/05/22 03:57:52;;;;;;;7.25;4.90;;;;;;;14.97;100.00;100256.63;5542627;32;33878;-68
2023/05/22 04:00:59;;;;;;;9.60;4.87;;;;;;;15.07;100.00;100258.94;5531781;32;33922;-68
2023/05/22 04:04:04;;;;;;;12.52;4.60;;;;;;;15.11;100.00;100268.19;5546459;32;33693;-68
2023/05/22 04:07:12;;;;;;;12.75;5.05;;;;;;;15.19;100.00;100257.34;5547934;32;33779;-68
2023/05/22 04:10:16;;;;;;;11.43;4.28;;;;;;;15.28;100.00;100258.81;5548022;32;33793;-68
2023/05/22 04:13:20;;;;;;;9.73;4.18;;;;;;;15.37;100.00;100265.62;5548733;32;33803;-68
2023/05/22 04:16:24;;;;;;;9.30;4.47;;;;;;;15.51;100.00;100263.84;5548758;32;33903;-68
2023/05/22 04:19:28;;;;;;;6.87;4.10;;;;;;;15.69;100.00;100255.22;5548660;32;34100;-68
2023/05/22 04:22:33;;;;;;;8.93;4.05;;;;;;;15.83;100.00;100267.59;5548607;32;33600;-68
2023/05/22 04:25:38;;;;;;;7.35;3.70;;;;;;;15.82;100.00;100253.41;5548573;32;34434;-69
2023/05/22 04:28:44;;;;;;;8.40;3.92;;;;;;;15.86;100.00;100256.50;5546485;32;34051;-68
2023/05/22 04:31:53;;;;;;;7.32;4.05;;;;;;;15.83;100.00;100257.69;5549075;32;33809;-69
2023/05/22 04:34:59;;;;;;;8.82;4.45;;;;;;;15.90;100.00;100258.53;5544248;32;33972;-69
2023/05/22 04:38:05;;;;;;;16.33;4.70;;;;;;;15.96;100.00;100251.56;5548958;32;33752;-68
2023/05/22 04:41:13;;;;;;;6.37;3.78;;;;;;;16.00;100.00;100263.47;5548518;32;33617;-68
2023/05/22 04:44:17;;;;;;;7.93;4.20;;;;;;;16.17;100.00;100261.22;5547999;32;34697;-68
2023/05/22 04:47:21;;;;;;;8.20;4.00;;;;;;;16.19;100.00;100254.63;5548430;32;34048;-68
2023/05/22 04:50:26;;;;;;;6.97;3.97;;;;;;;16.25;100.00;100259.16;5548478;32;33866;-68
2023/05/22 04:53:32;;;;;;;7.97;3.75;;;;;;;16.51;100.00;100259.09;5547510;32;33650;-69
2023/05/22 04:56:38;;;;;;;6.57;3.58;;;;;;;16.41;100.00;100266.75;5548467;32;34513;-68
2023/05/22 04:59:44;;;;;;;12.60;3.85;;;;;;;16.55;100.00;100262.22;5545727;32;33830;-68
2023/05/22 05:02:48;;;;;;;8.50;3.95;;;;;;;16.88;100.00;100257.63;5536871;32;35040;-68
2023/05/22 05:05:52;;;;;;;11.95;4.12;;;;;;;17.13;100.00;100259.56;5548199;32;33862;-68
2023/05/22 05:08:55;;;;;;;6.20;3.35;;;;;;;17.16;100.00;100253.78;5548186;32;33689;-68
2023/05/22 05:12:00;;;;;;;6.85;3.35;;;;;;;17.27;100.00;100255.78;5548018;32;34516;-68
2023/05/22 05:15:05;;;;;;;9.35;3.50;;;;;;;17.38;100.00;100261.28;5547138;32;34036;-71
2023/05/22 05:18:11;;;;;;;7.40;3.35;;;;;;;17.47;100.00;100272.59;5528908;32;34018;-68
2023/05/22 05:21:14;;;;;;;6.62;3.35;;;;;;;17.67;100.00;100281.34;5528970;32;33792;-68
2023/05/22 05:24:19;;;;;;;13.25;3.37;;;;;;;17.91;100.00;100285.13;5528835;32;34528;-68
2023/05/22 05:27:23;;;;;;;10.35;3.47;;;;;;;17.92;100.00;100272.53;5539693;32;33529;-68
2023/05/22 05:30:29;;;;;;;9.70;3.80;;;;;;;17.74;100.00;100286.69;5538810;32;33688;-68
2023/05/22 05:33:33;;;;;;;10.57;3.75;;;;;;;17.80;100.00;100288.50;5528834;32;34735;-68
2023/05/22 05:36:38;;;;;;;8.70;3.72;;;;;;;17.91;100.00;100290.47;5528592;32;33790;-68
2023/05/22 05:39:43;;;;;;;13.88;3.80;;;;;;;17.78;100.00;100290.59;5528197;32;33699;-68
2023/05/22 05:42:48;;;;;;;9.63;3.60;;;;;;;17.63;100.00;100296.25;5528618;32;34585;-68
2023/05/22 05:45:51;;;;;;;13.77;3.60;;;;;;;18.03;100.00;100299.50;5527417;32;35286;-68
2023/05/22 05:48:57;;;;;;;20.48;4.18;;;;;;;18.30;100.00;100296.59;5547081;32;33439;-68
2023/05/22 05:52:00;;;;;;;10.43;3.67;;;;;;;18.37;100.00;100294.66;5546909;32;33814;-68
2023/05/22 05:55:07;;;;;;;9.57;3.50;;;;;;;18.19;100.00;100304.34;5542981;32;34452;-68
2023/05/22 05:58:11;;;;;;;8.90;3.75;;;;;;;18.37;99.08;100295.50;5528603;32;33803;-68
2023/05/22 06:01:15;;;;;;;12.32;4.25;;;;;;;18.56;97.57;100305.25;5541349;32;34913;-68
2023/05/22 06:04:19;;;;;;;10.07;4.07;;;;;;;18.83;100.00;100303.12;5530877;32;34472;-68
2023/05/22 06:07:23;;;;;;;14.80;4.18;;;;;;;18.92;96.59;100301.78;5538463;32;34486;-68
2023/05/22 06:10:26;;;;;;;7.12;3.87;;;;;;;18.95;95.21;100295.13;5534125;32;34129;-68
2023/05/22 06:13:29;;;;;;;13.82;3.97;;;;;;;18.85;89.10;100297.53;5527883;32;33965;-68
2023/05/22 06:16:33;;;;;;;10.68;3.60;;;;;;;18.90;89.19;100293.12;5528078;32;34026;-68
2023/05/22 06:19:37;;;;;;;8.95;3.75;;;;;;;19.00;94.33;100300.66;5527666;32;33670;-68
2023/05/22 06:22:41;;;;;;;11.93;3.95;;;;;;;18.90;90.64;100301.19;5528161;32;33897;-68
2023/05/22 06:25:44;;;;;;;10.32;3.87;;;;;;;18.95;90.53;100301.34;5533062;32;34493;-69
2023/05/22 06:28:50;;;;;;;16.70;4.32;;;;;;;19.14;92.84;100298.63;5528112;32;34734;-68
2023/05/22 06:31:55;;;;;;;12.02;4.10;;;;;;;19.48;91.62;100304.22;5528300;32;34224;-68
2023/05/22 06:34:59;;;;;;;11.85;3.80;;;;;;;19.57;93.70;100296.66;5535739;32;34913;-67
2023/05/22 06:38:04;;;;;;;10.55;3.60;;;;;;;19.71;88.02;100298.09;5539834;32;34700;-68
2023/05/22 06:41:08;;;;;;;13.25;3.45;;;;;;;19.75;85.63;100296.59;5539888;32;34563;-68
2023/05/22 06:44:11;;;;;;;10.75;3.50;;;;;;;19.96;81.04;100301.44;5537694;32;33799;-68
2023/05/22 06:47:14;;;;;;;10.75;3.85;;;;;;;20.59;80.51;100310.81;5534569;32;32532;-70
2023/05/22 06:50:17;;;;;;;10.50;3.55;;;;;;;20.94;75.95;100308.91;5527930;32;34560;-67
2023/05/22 06:53:22;;;;;;;7.90;3.50;;;;;;;20.85;71.28;100309.50;5527491;32;33866;-69
2023/05/22 06:56:25;;;;;;;12.90;3.78;;;;;;;20.77;72.22;100316.06;5526699;32;34349;-69
2023/05/22 06:59:31;;;;;;;11.20;4.12;;;;;;;20.89;75.71;100314.19;5532495;32;34109;-69
2023/05/22 07:02:36;;;;;;;6.90;3.20;;;;;;;20.92;74.48;100305.59;5547075;32;33606;-70
2023/05/22 07:05:44;;;;;;;10.02;3.45;;;;;;;20.98;76.88;100306.53;5533326;32;33565;-70
2023/05/22 07:08:47;;;;;;;10.20;3.08;;;;;;;21.13;73.54;100312.25;5546859;32;34578;-68
2023/05/22 07:11:52;;;;;;;10.35;3.20;;;;;;;21.33;73.61;100307.31;5546709;32;34568;-70
2023/05/22 07:14:56;;;;;;;6.03;3.12;;;;;;;21.87;70.56;100311.31;5545505;32;34379;-71
2023/05/22 07:18:00;;;;;;;11.73;3.17;;;;;;;22.16;68.08;100311.28;5545876;32;34787;-68
2023/05/22 07:21:04;;;;;;;13.15;3.15;;;;;;;22.40;63.51;100305.47;5545520;32;33739;-69
2023/05/22 07:24:09;;;;;;;9.55;3.12;;;;;;;22.86;63.36;100298.84;5539645;32;33664;-69
2023/05/22 07:27:13;;;;;;;8.05;2.80;;;;;;;23.32;58.29;100313.78;5542612;32;33687;-68
2023/05/22 07:30:19;;;;;;;8.63;2.72;;;;;;;24.17;50.01;100309.53;5541658;32;33987;-69
2023/05/22 07:33:24;;;;;;;7.93;2.87;;;;;;;23.86;47.82;100316.56;5543678;32;33931;-69
2023/05/22 07:36:28;;;;;;;5.85;2.62;;;;;;;23.59;48.91;100308.41;5526441;32;33817;-69
2023/05/22 07:39:31;;;;;;;13.00;3.22;;;;;;;23.18;48.72;100312.53;5535511;32;33802;-69
2023/05/22 07:42:36;;;;;;;9.10;2.60;;;;;;;22.70;50.31;100307.84;5544958;32;33743;-69
2023/05/22 07:45:42;;;;;;;9.05;2.87;;;;;;;22.56;50.04;100306.50;5546545;32;33952;-69
2023/05/22 07:48:47;;;;;;;7.43;2.75;;;;;;;22.23;50.01;100298.41;5545871;32;34048;-69
2023/05/22 07:51:51;;;;;;;11.32;2.75;;;;;;;22.91;50.25;100308.91;5542193;32;33706;-69
2023/05/22 07:54:54;;;;;;;8.38;2.97;;;;;;;22.84;50.68;100300.19;5528685;32;35000;-69
2023/05/22 07:57:59;;;;;;;8.88;2.70;;;;;;;24.72;47.52;100306.41;5544134;32;34429;-70
2023/05/22 08:01:06;;;;;;;7.95;2.47;;;;;;;25.83;43.50;100306.06;5546058;32;33946;-70
2023/05/22 08:04:12;;;;;;;8.02;2.53;;;;;;;25.70;42.96;100317.47;5546171;32;34307;-70
2023/05/22 08:07:15;;;;;;;7.87;2.72;;;;;;;27.18;38.61;100308.91;5545949;32;34595;-70
2023/05/22 08:10:19;;;;;;;7.75;2.87;;;;;;;28.01;38.02;100301.63;5546091;32;33596;-70
2023/05/22 08:13:22;;;;;;;8.10;2.65;;;;;;;27.96;38.23;100304.41;5545099;32;33675;-70
2023/05/22 08:16:27;;;;;;;7.37;2.30;;;;;;;28.73;37.94;100304.56;5545919;32;33948;-69
2023/05/22 08:19:30;;;;;;;9.98;2.67;;;;;;;28.65;36.80;100305.19;5544614;32;34242;-70
2023/05/22 08:22:34;;;;;;;4.72;2.65;;;;;;;28.87;36.53;100309.06;5545806;32;33933;-70
2023/05/22 08:25:37;;;;;;;20.15;3.28;;;;;;;27.49;38.25;100296.00;5544998;32;33918;-70
2023/05/22 08:28:43;;;;;;;7.10;2.37;;;;;;;28.42;37.15;100307.56;5547118;32;33770;-71
2023/05/22 08:31:47;;;;;;;5.75;2.97;;;;;;;28.33;36.64;100303.84;5548354;32;33851;-69
2023/05/22 08:34:51;;;;;;;9.77;2.90;;;;;;;29.00;36.59;100296.59;5548412;32;34654;-70
2023/05/22 08:37:54;;;;;;;6.10;2.33;;;;;;;30.28;34.38;100297.25;5548716;32;33598;-70
2023/05/22 08:40:59;;;;;;;8.90;2.53;;;;;;;30.25;33.77;100294.31;5547229;32;33599;-71
2023/05/22 08:44:03;;;;;;;4.50;2.42;;;;;;;28.93;33.91;100296.97;5548006;32;33603;-70
2023/05/22 08:47:12;;;;;;;7.70;2.30;;;;;;;30.51;32.11;100304.53;5548367;32;34853;-68
2023/05/22 08:50:16;;;;;;;6.70;2.40;;;;;;;31.13;30.99;100304.22;5548152;32;34094;-69
2023/05/22 08:53:22;;;;;;;6.65;2.37;;;;;;;30.86;31.19;100291.28;5548145;32;34220;-68
2023/05/22 08:56:26;;;;;;;6.53;2.75;;;;;;;30.47;31.93;100294.50;5546329;32;34237;-67
2023/05/22 08:59:37;;;;;;;6.70;2.70;;;;;;;29.15;33.82;100288.22;5530314;32;34373;-69
2023/05/22 09:02:41;;;;;;;5.78;2.60;;;;;;;28.30;34.98;100281.78;5528569;32;33860;-69
2023/05/22 09:05:44;;;;;;;17.77;2.90;;;;;;;27.99;35.78;100287.47;5528921;32;35243;-70
2023/05/22 09:08:47;;;;;;;11.73;2.87;;;;;;;29.50;35.21;100288.88;5528677;32;34675;-68
2023/05/22 09:11:54;;;;;;;9.73;3.00;;;;;;;29.63;34.83;100286.22;5529151;32;33956;-68
2023/05/22 09:15:09;;;;;;;16.40;3.15;;;;;;;29.77;34.46;100284.37;5528957;32;33632;-70
2023/05/22 09:18:12;;;;;;;7.62;2.95;;;;;;;29.21;35.27;100284.34;5529315;32;34071;-70
2023/05/22 09:21:18;;;;;;;12.02;2.70;;;;;;;29.71;35.97;100288.31;5528863;32;34078;-70
2023/05/22 09:24:44;;;;;;;15.60;3.35;;;;;;;29.83;34.77;100276.09;5528991;32;34416;-69
2023/05/22 09:27:48;;;;;;;10.80;2.85;;;;;;;29.49;35.24;100279.88;5529147;32;34123;-69
2023/05/22 09:30:53;;;;;;;4.78;2.42;;;;;;;31.11;32.07;100289.97;5531959;32;33711;-69
2023/05/22 09:33:57;;;;;;;5.53;2.50;;;;;;;31.70;31.40;100283.50;5529101;32;34412;-69
2023/05/22 09:37:04;;;;;;;5.18;2.40;;;;;;;30.84;30.71;100283.34;5533321;32;33608;-69
2023/05/22 09:40:12;;;;;;;7.20;2.60;;;;;;;32.81;28.47;100275.16;5539833;32;33874;-69
2023/05/22 09:43:18;;;;;;;12.30;2.80;;;;;;;31.86;29.79;100277.31;5545999;32;34396;-69
2023/05/22 09:46:22;;;;;;;4.47;2.50;;;;;;;31.13;31.71;100279.53;5531263;32;34030;-66
2023/05/22 09:49:26;;;;;;;22.15;3.30;;;;;;;31.55;30.67;100273.66;5537920;32;34012;-68
2023/05/22 09:52:33;;;;;;;16.62;2.70;;;;;;;31.92;30.48;100272.50;5536111;32;33934;-68
2023/05/22 09:55:38;;;;;;;17.95;3.20;;;;;;;32.87;28.96;100262.91;5529895;32;33801;-69
2023/05/22 09:58:44;;;;;;;11.65;2.92;;;;;;;32.91;29.25;100269.38;5539195;32;34127;-68
2023/05/22 10:01:49;;;;;;;7.82;2.55;;;;;;;31.50;30.98;100263.63;5532637;32;33870;-70
2023/05/22 10:04:54;;;;;;;6.43;2.47;;;;;;;30.38;31.38;100271.63;5544389;32;33549;-69
2023/05/22 10:08:26;;;;;;;7.37;2.40;;;;;;;29.54;32.73;100268.88;5544838;32;34023;-68
2023/05/22 10:11:32;;;;;;;10.07;2.65;;;;;;;29.07;33.96;100263.47;5543874;32;34840;-69
2023/05/22 10:14:36;;;;;;;9.27;2.78;;;;;;;28.61;34.63;100265.94;5535985;32;34450;-68
2023/05/22 10:17:40;;;;;;;8.07;2.87;;;;;;;28.39;35.11;100255.50;5528515;32;34347;-69
2023/05/22 10:20:45;;;;;;;10.40;2.92;;;;;;;29.17;33.37;100257.91;5533338;32;33892;-67
2023/05/22 10:23:51;;;;;;;6.70;2.78;;;;;;;31.66;30.42;100253.09;5537136;32;34230;-68
2023/05/22 10:26:54;;;;;;;10.38;2.80;;;;;;;32.54;28.69;100248.66;5547385;32;33922;-68
2023/05/22 10:30:19;;;;;;;7.28;2.70;;;;;;;33.12;28.11;100251.13;5546409;32;33942;-68
2023/05/22 10:33:35;;;;;;;7.43;2.70;;;;;;;33.96;27.15;100245.22;5544917;32;34059;-68
2023/05/22 10:37:00;;;;;;;6.00;2.78;;;;;;;35.15;25.02;100244.28;5534182;32;33791;-68
2023/05/22 10:40:27;;;;;;;9.43;2.90;;;;;;;35.59;25.13;100237.31;5539140;32;34945;-68
2023/05/22 10:43:31;;;;;;;8.70;3.17;;;;;;;35.79;24.62;100233.75;5538787;32;33670;-69
2023/05/22 10:46:35;;;;;;;5.40;2.90;;;;;;;35.91;24.14;100230.22;5534879;32;33944;-69
2023/05/22 10:49:43;;;;;;;4.70;2.83;;;;;;;37.43;21.97;100232.47;5533875;32;33532;-69
2023/05/22 10:52:46;;;;;;;7.78;2.62;;;;;;;36.32;23.37;100227.34;5545786;32;33977;-69
2023/05/22 10:55:54;;;;;;;7.35;2.60;;;;;;;35.88;24.28;100219.84;5546654;32;34176;-70
2023/05/22 10:59:03;;;;;;;9.18;2.78;;;;;;;35.43;24.68;100214.25;5546327;32;34495;-66
2023/05/22 11:02:24;;;;;;;8.20;3.25;;;;;;;37.79;23.22;100214.97;5538718;32;34122;-70
2023/05/22 11:05:27;;;;;;;8.63;3.08;;;;;;;36.12;23.75;100217.97;5527694;32;34650;-69
2023/05/22 11:08:36;;;;;;;8.18;2.70;;;;;;;37.31;22.53;100202.91;5529489;32;33901;-69
2023/05/22 11:11:39;;;;;;;5.62;2.47;;;;;;;39.58;20.61;100207.81;5537681;32;33898;-70
2023/05/22 11:14:47;;;;;;;8.65;2.75;;;;;;;37.10;22.56;100196.72;5533154;32;33729;-67
2023/05/22 11:17:50;;;;;;;;;;;;;;;35.30;23.52;100196.81;5526958;32;33889;-67
2023/05/22 11:20:54;;;;;;;9.07;2.65;;;;;;;38.13;21.76;100188.59;5526382;32;34193;-67
2023/05/22 11:24:01;;;;;;;8.68;2.75;;;;;;;39.31;21.22;100190.22;5527295;32;33945;-68
2023/05/22 11:27:06;;;;;;;7.22;2.37;;;;;;;40.28;19.86;100189.72;5527292;32;33807;-68
2023/05/22 11:30:10;;;;;;;7.18;3.05;;;;;;;37.93;21.68;100184.88;5527397;32;34621;-69
2023/05/22 11:33:14;;;;;;;8.63;2.85;;;;;;;38.80;21.03;100178.34;5527206;32;34864;-68
2023/05/22 11:36:17;;;;;;;8.40;2.70;;;;;;;38.85;21.04;100184.41;5527156;32;33794;-68
2023/05/22 11:39:22;;;;;;;7.12;2.80;;;;;;;40.37;18.77;100176.37;5530016;32;34973;-68
2023/05/22 11:42:25;;;;;;;4.87;2.50;;;;;;;40.37;19.06;100172.81;5527139;32;34521;-70
2023/05/22 11:45:28;;;;;;;11.15;2.62;;;;;;;41.99;17.77;100173.34;5527071;32;34659;-69
2023/05/22 11:48:31;;;;;;;5.15;2.90;;;;;;;40.49;18.72;100161.47;5535096;32;34000;-69
2023/05/22 11:51:40;;;;;;;15.02;3.05;;;;;;;39.92;19.22;100166.06;5534232;32;34554;-69
2023/05/22 11:54:47;;;;;;;13.65;2.40;;;;;;;40.30;20.35;100162.37;5532396;32;33851;-70
2023/05/22 11:57:50;;;;;;;9.50;2.72;;;;;;;39.41;19.28;100168.22;5545966;32;34216;-70
2023/05/22 12:01:00;;;;;;;8.18;2.37;;;;;;;39.53;18.46;100162.53;5532160;32;33783;-71
2023/05/22 12:04:04;;;;;;;7.90;2.70;;;;;;;40.46;17.94;100161.41;5548677;32;34482;-69
2023/05/22 12:07:07;;;;;;;6.95;2.60;;;;;;;38.98;19.55;100162.94;5548657;32;33899;-69
2023/05/22 12:10:13;;;;;;;14.95;2.65;;;;;;;37.68;21.74;100161.25;5542905;32;33708;-68
2023/05/22 12:13:25;;;;;;;;;;;;;;;38.16;21.31;100160.97;5549365;32;33709;-69
2023/05/22 12:16:35;;;;;;;6.07;2.50;;;;;;;35.98;23.28;100147.62;5548824;32;34062;-69
2023/05/22 12:19:42;;;;;;;6.05;2.60;;;;;;;38.73;21.98;100147.69;5547057;32;33733;-68
2023/05/22 12:22:48;;;;;;;7.37;2.30;;;;;;;38.06;21.37;100144.88;5548543;32;34724;-71
2023/05/22 12:26:07;;;;;;;11.60;2.90;;;;;;;35.33;24.26;100142.94;5545859;32;33912;-70
2023/05/22 12:29:11;;;;;;;5.87;2.70;;;;;;;36.56;24.00;100133.41;5528970;32;34027;-69
2023/05/22 12:32:16;;;;;;;6.70;2.85;;;;;;;37.04;23.21;100128.94;5529305;32;34457;-70
2023/05/22 12:35:21;;;;;;;5.80;2.67;;;;;;;36.99;23.32;100127.22;5528680;32;34017;-69
2023/05/22 12:38:26;;;;;;;11.12;2.67;;;;;;;39.49;20.15;100127.53;5529266;32;34119;-70
2023/05/22 12:41:29;;;;;;;3.30;2.37;;;;;;;39.65;20.90;100124.66;5529316;32;33379;-69
2023/05/22 12:44:37;;;;;;;7.40;2.70;;;;;;;39.90;20.15;100114.81;5528960;32;33651;-70
2023/05/22 12:47:41;;;;;;;9.80;3.15;;;;;;;39.29;20.35;100114.81;5528654;32;33688;-70
2023/05/22 12:50:45;;;;;;;5.90;2.60;;;;;;;37.52;23.52;100105.03;5528959;32;33721;-69
2023/05/22 12:53:48;;;;;;;6.87;3.10;;;;;;;39.50;21.21;100096.62;5529018;32;33909;-71
2023/05/22 12:56:51;;;;;;;22.95;3.33;;;;;;;40.89;19.41;100099.66;5544767;32;34716;-68
2023/05/22 12:59:54;;;;;;;8.45;2.60;;;;;;;41.67;19.93;100092.25;5548048;32;34106;-68
2023/05/22 13:02:58;;;;;;;8.82;2.70;;;;;;;42.01;19.39;100088.19;5545228;32;33666;-68
2023/05/22 13:06:02;;;;;;;11.25;2.60;;;;;;;43.59;17.48;100081.00;5528644;32;33542;-69
2023/05/22 13:09:06;;;;;;;7.75;2.55;;;;;;;41.51;19.18;100084.13;5528663;32;35126;-69
2023/05/22 13:12:09;;;;;;;5.35;2.85;;;;;;;42.16;18.24;100077.13;5527410;32;33940;-69
2023/05/22 13:15:14;;;;;;;8.02;2.70;;;;;;;44.96;16.47;100079.22;5544256;32;33848;-68
2023/05/22 13:18:18;;;;;;;8.05;2.28;;;;;;;43.63;17.39;100073.41;5542245;32;33650;-72
2023/05/22 13:21:21;;;;;;;10.52;2.78;;;;;;;43.69;17.65;100073.81;5544959;32;33987;-68
2023/05/22 13:24:28;;;;;;;8.18;3.03;;;;;;;42.90;18.18;100069.22;5547719;32;34523;-69
2023/05/22 13:27:31;;;;;;;6.97;2.70;;;;;;;40.90;18.81;100056.75;5538762;32;33992;-68
2023/05/22 13:30:36;;;;;;;10.20;2.70;;;;;;;42.95;17.28;100063.25;5543655;32;34178;-70
2023/05/22 13:33:39;;;;;;;11.63;2.87;;;;;;;43.75;16.97;100061.84;5537111;32;34063;-68
2023/05/22 13:36:43;;;;;;;21.80;2.70;;;;;;;42.19;18.61;100063.22;5535215;32;34602;-68
2023/05/22 13:39:46;;;;;;;8.15;2.95;;;;;;;43.49;17.13;100062.22;5527610;32;34411;-69
2023/05/22 13:42:51;;;;;;;6.87;2.90;;;;;;;43.76;17.25;100059.88;5528062;32;33585;-69
2023/05/22 13:45:54;;;;;;;5.95;2.62;;;;;;;40.51;19.15;100050.66;5528082;32;33905;-68
2023/05/22 13:48:58;;;;;;;14.00;2.60;;;;;;;40.65;19.91;100050.09;5528238;32;33643;-69
2023/05/22 13:52:01;;;;;;;8.93;3.78;;;;;;;42.16;18.74;100063.19;5528052;32;33878;-69
2023/05/22 13:55:05;;;;;;;6.68;2.92;;;;;;;41.12;19.16;100043.91;5538539;32;34481;-69
2023/05/22 13:58:08;;;;;;;15.52;2.87;;;;;;;41.95;19.23;100045.13;5530065;32;33845;-72
2023/05/22 14:01:12;;;;;;;6.32;2.33;;;;;;;39.91;20.57;100045.00;5537522;32;34137;-69
2023/05/22 14:04:16;;;;;;;16.55;3.35;;;;;;;40.06;19.97;100045.22;5546130;32;33763;-68
2023/05/22 14:07:19;;;;;;;11.25;3.20;;;;;;;39.36;20.93;100040.06;5527372;32;33957;-67
2023/05/22 14:10:22;;;;;;;12.90;2.87;;;;;;;38.90;21.77;100042.72;5547100;32;33944;-68
2023/05/22 14:13:26;;;;;;;7.95;2.72;;;;;;;39.10;21.64;100030.44;5545699;32;33852;-69
2023/05/22 14:16:30;;;;;;;11.90;2.83;;;;;;;37.72;22.27;100029.25;5542074;32;33718;-70